Time;durP1;ratioP1;P1;durP2;ratioP2;P2;SDS_P1;SDS_P2;PMS_P1;PMS_P2;Temp;Humidity;BMP_temperature;BMP_pressure;BME280_temperature;BME280_humidity;BME280_pressure;Samples;Min_cycle;Max_cycle;Signal;HPM_P1;HPM_P2
2023/01/13 00:00:57;;;;;;;1.73;0.30;;;9.80;99.90;;;;;;5025911;28;20026;-71
2023/01/13 00:03:22;;;;;;;1.17;0.32;;;9.70;99.90;;;;;;5014775;28;20388;-72
2023/01/13 00:05:48;;;;;;;0.43;0.35;;;9.70;99.90;;;;;;5014988;28;20037;-69
2023/01/13 00:08:14;;;;;;;0.90;0.30;;;9.70;99.90;;;;;;5015987;28;20097;-69
2023/01/13 00:10:39;;;;;;;0.98;0.40;;;9.70;99.90;;;;;;5014802;28;20022;-69
2023/01/13 00:13:05;;;;;;;0.47;0.38;;;9.80;99.90;;;;;;5015938;28;20064;-69
2023/01/13 00:15:31;;;;;;;0.10;0.10;;;9.80;99.90;;;;;;5014376;28;20030;-69
2023/01/13 00:17:57;;;;;;;0.43;0.20;;;9.80;99.90;;;;;;5014586;28;20034;-69
2023/01/13 00:20:23;;;;;;;0.35;0.10;;;9.80;99.90;;;;;;5014785;28;20032;-69
2023/01/13 00:22:48;;;;;;;0.25;0.20;;;9.80;99.90;;;;;;5014410;28;20096;-69
2023/01/13 00:25:14;;;;;;;0.20;0.10;;;9.80;99.90;;;;;;5014985;28;20076;-69
2023/01/13 00:27:39;;;;;;;0.22;0.10;;;9.80;99.90;;;;;;5015449;28;20061;-69
2023/01/13 00:30:06;;;;;;;0.52;0.10;;;9.90;99.90;;;;;;5014156;28;20028;-69
2023/01/13 00:32:32;;;;;;;0.38;0.10;;;9.90;99.90;;;;;;5014094;28;20025;-69
2023/01/13 00:34:57;;;;;;;0.70;0.20;;;9.90;99.90;;;;;;5013851;28;20022;-69
2023/01/13 00:37:24;;;;;;;0.95;0.32;;;9.90;99.90;;;;;;5015276;28;20030;-69
2023/01/13 00:39:51;;;;;;;1.77;0.20;;;10.00;99.90;;;;;;5015049;28;20026;-69
2023/01/13 00:45:01;;;;;;;1.40;0.30;;;10.10;99.90;;;;;;5015599;28;20060;-69
2023/01/13 00:47:26;;;;;;;0.20;0.13;;;10.10;99.90;;;;;;5015067;28;20053;-69
2023/01/13 00:49:52;;;;;;;0.03;0.00;;;10.10;99.90;;;;;;5014251;28;20022;-69
2023/01/13 00:52:17;;;;;;;0.38;0.20;;;10.10;99.90;;;;;;5013646;28;20025;-69
2023/01/13 00:54:43;;;;;;;0.20;0.20;;;10.10;99.90;;;;;;5014827;28;20030;-69
2023/01/13 00:57:08;;;;;;;0.05;0.05;;;10.10;99.90;;;;;;5013556;28;20026;-69
2023/01/13 00:59:34;;;;;;;0.40;0.20;;;10.10;99.90;;;;;;5014351;28;20025;-69
2023/01/13 01:01:59;;;;;;;0.30;0.05;;;10.10;99.90;;;;;;5014720;28;20030;-69
2023/01/13 01:04:25;;;;;;;0.00;0.00;;;10.10;99.90;;;;;;5014499;28;20109;-69
2023/01/13 01:06:51;;;;;;;0.22;0.10;;;10.20;99.90;;;;;;5014752;28;20033;-68
2023/01/13 01:09:17;;;;;;;0.00;0.00;;;10.20;99.90;;;;;;5014667;28;20025;-69
2023/01/13 01:11:43;;;;;;;1.90;0.30;;;10.20;99.90;;;;;;5014664;28;20037;-69
2023/01/13 01:14:13;;;;;;;0.20;0.08;;;10.20;99.90;;;;;;5014195;28;20030;-69
2023/01/13 01:16:40;;;;;;;0.05;0.05;;;10.30;99.90;;;;;;5014731;28;20053;-69
2023/01/13 01:19:06;;;;;;;0.35;0.10;;;10.30;99.90;;;;;;5013219;28;20026;-69
2023/01/13 01:21:32;;;;;;;0.13;0.10;;;10.30;99.90;;;;;;5014545;28;20469;-69
2023/01/13 01:23:59;;;;;;;0.40;0.10;;;10.30;99.90;;;;;;5014486;28;20022;-69
2023/01/13 01:26:27;;;;;;;1.08;0.13;;;10.30;99.90;;;;;;5013382;28;20058;-69
2023/01/13 01:28:53;;;;;;;0.20;0.10;;;10.40;99.90;;;;;;5014383;28;20048;-69
2023/01/13 01:31:20;;;;;;;2.63;0.20;;;10.40;99.90;;;;;;5013136;28;20488;-69
2023/01/13 01:33:49;;;;;;;0.00;0.00;;;10.40;99.90;;;;;;5013573;28;20032;-69
2023/01/13 01:36:16;;;;;;;0.55;0.10;;;10.50;99.90;;;;;;5013903;28;20061;-69
2023/01/13 01:38:42;;;;;;;0.10;0.10;;;10.40;99.90;;;;;;5013455;28;20026;-69
2023/01/13 01:41:17;;;;;;;0.20;0.10;;;10.50;99.90;;;;;;5013270;28;20037;-69
2023/01/13 01:44:01;;;;;;;0.35;0.05;;;10.50;99.90;;;;;;5014505;28;20018;-69
2023/01/13 01:46:45;;;;;;;0.40;0.10;;;10.50;99.90;;;;;;5012831;28;20079;-69
2023/01/13 01:49:24;;;;;;;0.52;0.50;;;10.50;99.90;;;;;;5012744;28;20029;-69
2023/01/13 01:51:58;;;;;;;0.90;0.10;;;10.50;99.90;;;;;;5013985;28;20033;-69
2023/01/13 01:54:32;;;;;;;0.90;0.20;;;10.50;99.90;;;;;;5014161;28;20053;-69
2023/01/13 01:56:58;;;;;;;0.60;0.13;;;10.60;99.90;;;;;;5013231;28;20033;-69
2023/01/13 01:59:25;;;;;;;1.55;0.17;;;10.50;99.90;;;;;;5012483;28;20025;-69
2023/01/13 02:01:51;;;;;;;0.17;0.10;;;10.60;99.90;;;;;;5013580;28;20033;-69
2023/01/13 02:04:22;;;;;;;8.68;0.20;;;10.60;99.90;;;;;;5012188;28;20034;-69
2023/01/13 02:06:48;;;;;;;0.10;0.10;;;10.60;99.90;;;;;;5013180;28;20021;-69
2023/01/13 02:09:14;;;;;;;0.00;0.00;;;10.60;99.90;;;;;;5012353;28;20030;-69
2023/01/13 02:14:26;;;;;;;1.08;0.10;;;10.60;99.90;;;;;;5017244;28;20043;-69
2023/01/13 02:17:20;;;;;;;0.10;0.00;;;10.60;99.90;;;;;;5033297;28;20029;-69
2023/01/13 02:20:07;;;;;;;0.10;0.05;;;10.60;99.90;;;;;;5032809;28;20029;-69
2023/01/13 02:22:49;;;;;;;3.47;0.20;;;10.70;99.90;;;;;;5033153;28;20029;-69
2023/01/13 02:25:56;;;;;;;1.17;0.05;;;10.70;99.90;;;;;;5032506;28;20021;-69
2023/01/13 02:31:50;;;;;;;1.27;0.10;;;10.70;99.90;;;;;;5033704;28;20124;-69
2023/01/13 02:34:38;;;;;;;3.88;0.22;;;10.70;99.90;;;;;;5033101;28;20076;-69
2023/01/13 02:37:13;;;;;;;0.52;0.20;;;10.70;99.90;;;;;;5033164;28;20056;-69
2023/01/13 02:40:02;;;;;;;0.80;0.20;;;10.70;99.90;;;;;;5033538;28;20464;-69
2023/01/13 02:45:32;;;;;;;0.75;0.08;;;10.70;99.90;;;;;;5033412;28;20044;-69
2023/01/13 02:48:00;;;;;;;0.50;0.20;;;10.70;99.90;;;;;;5033075;28;20025;-69
2023/01/13 02:50:33;;;;;;;0.45;0.13;;;10.70;99.90;;;;;;5031708;28;20531;-69
2023/01/13 02:53:04;;;;;;;0.10;0.10;;;10.70;99.90;;;;;;5032400;28;20025;-69
2023/01/13 02:55:34;;;;;;;2.43;0.00;;;10.80;99.90;;;;;;5032909;28;20026;-69
2023/01/13 02:58:04;;;;;;;0.55;0.10;;;10.70;99.90;;;;;;5031655;28;20061;-69
2023/01/13 03:00:32;;;;;;;1.25;0.10;;;10.80;99.90;;;;;;5032330;28;20128;-69
2023/01/13 03:02:57;;;;;;;0.75;0.10;;;10.70;99.90;;;;;;5031552;28;20061;-69
2023/01/13 03:05:25;;;;;;;0.10;0.08;;;10.70;99.90;;;;;;5032478;28;20064;-69
2023/01/13 03:07:59;;;;;;;0.22;0.10;;;10.70;99.90;;;;;;5032831;28;20052;-69
2023/01/13 03:10:31;;;;;;;0.10;0.10;;;10.70;99.90;;;;;;5033003;28;20041;-69
2023/01/13 03:13:27;;;;;;;0.10;0.00;;;10.60;99.90;;;;;;5031419;28;20033;-69
2023/01/13 03:16:14;;;;;;;0.30;0.10;;;10.60;99.90;;;;;;5032613;28;20022;-69
2023/01/13 03:19:05;;;;;;;0.00;0.00;;;10.50;99.90;;;;;;5022631;28;20033;-69
2023/01/13 03:21:37;;;;;;;1.02;0.10;;;10.50;99.90;;;;;;5012624;28;20049;-69
2023/01/13 03:24:20;;;;;;;0.22;0.00;;;10.60;99.90;;;;;;5012868;28;20018;-69
2023/01/13 03:26:51;;;;;;;0.45;0.25;;;10.60;99.90;;;;;;5011733;28;20022;-67
2023/01/13 03:29:59;;;;;;;1.27;0.00;;;10.60;99.90;;;;;;5011629;28;20022;-67
2023/01/13 03:32:36;;;;;;;0.75;0.10;;;10.60;99.90;;;;;;5013093;28;20022;-67
2023/01/13 03:35:16;;;;;;;0.15;0.13;;;10.60;99.90;;;;;;5013124;28;20032;-67
2023/01/13 03:37:48;;;;;;;0.17;0.10;;;10.60;99.90;;;;;;5015921;28;20097;-67
2023/01/13 03:40:19;;;;;;;0.05;0.05;;;10.50;99.90;;;;;;5016304;28;20029;-67
2023/01/13 03:45:39;;;;;;;0.25;0.10;;;10.30;99.90;;;;;;5005370;28;20026;-67
2023/01/13 03:48:15;;;;;;;0.43;0.10;;;10.30;99.90;;;;;;5016382;28;20488;-67
2023/01/13 03:50:49;;;;;;;0.35;0.10;;;10.20;99.90;;;;;;5016144;28;20022;-67
2023/01/13 03:53:23;;;;;;;2.10;0.08;;;10.10;99.90;;;;;;5014892;28;20064;-67
2023/01/13 03:56:04;;;;;;;3.72;0.40;;;10.00;99.90;;;;;;5015905;28;20030;-67
2023/01/13 03:58:34;;;;;;;1.42;0.10;;;10.00;99.90;;;;;;5015028;28;20022;-67
2023/01/13 04:01:15;;;;;;;1.55;0.20;;;9.90;99.90;;;;;;5014871;28;20084;-67
2023/01/13 04:03:58;;;;;;;1.33;0.20;;;9.80;99.90;;;;;;5015856;28;20076;-67
2023/01/13 04:06:44;;;;;;;0.90;0.17;;;9.70;99.90;;;;;;5015677;28;20026;-67
2023/01/13 04:09:26;;;;;;;2.08;0.10;;;9.60;99.90;;;;;;5014521;28;20043;-69
2023/01/13 04:11:55;;;;;;;;;;;9.50;99.90;;;;;;5015447;28;20065;-69
2023/01/13 04:14:23;;;;;;;4.75;0.10;;;9.30;99.90;;;;;;5014314;28;19905;-69
2023/01/13 04:16:49;;;;;;;0.00;0.00;;;9.20;99.90;;;;;;5014682;28;20026;-69
2023/01/13 04:19:14;;;;;;;0.68;0.10;;;9.20;99.90;;;;;;5014334;28;20029;-69
2023/01/13 04:21:40;;;;;;;0.10;0.10;;;9.00;99.90;;;;;;5014261;28;20029;-69
2023/01/13 04:24:07;;;;;;;0.52;0.10;;;9.00;99.90;;;;;;5015289;28;20094;-69
2023/01/13 04:26:32;;;;;;;0.52;0.10;;;8.90;99.90;;;;;;5015333;28;20025;-69
2023/01/13 04:28:58;;;;;;;1.60;0.10;;;8.80;99.90;;;;;;5014165;28;20080;-69
2023/01/13 04:31:23;;;;;;;0.57;0.20;;;8.80;99.90;;;;;;5014346;28;20461;-69
2023/01/13 04:33:49;;;;;;;1.77;0.20;;;8.80;99.90;;;;;;5014074;28;20032;-69
2023/01/13 04:36:14;;;;;;;0.30;0.00;;;8.80;99.90;;;;;;5014062;28;20026;-69
2023/01/13 04:38:40;;;;;;;0.75;0.20;;;8.80;99.90;;;;;;5014020;28;20026;-69
2023/01/13 04:41:05;;;;;;;3.88;0.25;;;8.70;99.90;;;;;;5014043;28;20026;-69
2023/01/13 04:43:31;;;;;;;1.55;0.20;;;8.70;99.90;;;;;;5014330;28;20025;-69
2023/01/13 04:45:56;;;;;;;0.57;0.30;;;8.70;99.90;;;;;;5015040;28;20486;-69
2023/01/13 04:48:22;;;;;;;1.10;0.22;;;8.70;99.90;;;;;;5013301;28;20033;-69
2023/01/13 04:50:47;;;;;;;0.52;0.20;;;8.70;99.90;;;;;;5013874;28;20042;-69
2023/01/13 04:53:13;;;;;;;2.08;0.20;;;8.60;99.90;;;;;;5013648;28;20048;-69
2023/01/13 04:55:38;;;;;;;0.20;0.10;;;8.60;99.90;;;;;;5014829;28;20026;-69
2023/01/13 04:58:09;;;;;;;2.53;0.13;;;8.60;99.90;;;;;;5014264;28;20033;-69
2023/01/13 05:00:35;;;;;;;1.67;0.30;;;8.50;99.90;;;;;;5014050;28;20025;-69
2023/01/13 05:03:02;;;;;;;1.98;0.30;;;8.20;99.90;;;;;;5013275;28;20030;-69
2023/01/13 05:05:29;;;;;;;4.85;1.05;;;8.00;99.90;;;;;;5014548;28;20080;-69
2023/01/13 05:07:54;;;;;;;1.75;0.10;;;8.10;99.90;;;;;;5013409;28;20026;-69
2023/01/13 05:10:20;;;;;;;1.80;0.30;;;8.10;99.90;;;;;;5013373;28;20075;-69
2023/01/13 05:18:15;;;;;;;1.88;0.30;;;7.80;99.90;;;;;;5014858;28;20037;-69
2023/01/13 05:20:40;;;;;;;0.75;0.30;;;7.80;99.90;;;;;;5013989;28;20204;-69
2023/01/13 05:25:50;;;;;;;1.40;0.25;;;7.70;99.90;;;;;;5014353;28;20036;-69
2023/01/13 05:28:16;;;;;;;0.55;0.28;;;7.60;99.90;;;;;;5014079;28;20030;-69
2023/01/13 05:30:44;;;;;;;3.53;0.30;;;7.70;99.90;;;;;;5013100;28;20026;-69
2023/01/13 05:33:14;;;;;;;0.63;0.10;;;7.60;99.90;;;;;;5013970;28;20022;-68
2023/01/13 05:35:41;;;;;;;1.33;0.25;;;7.50;99.90;;;;;;5013422;28;20037;-68
2023/01/13 05:38:08;;;;;;;1.23;0.30;;;7.60;99.90;;;;;;5013446;28;20137;-68
2023/01/13 05:43:20;;;;;;;1.50;0.30;;;7.70;99.90;;;;;;5015248;28;20083;-69
2023/01/13 05:45:46;;;;;;;1.45;0.20;;;7.80;99.90;;;;;;5014147;28;20013;-69
2023/01/13 05:48:13;;;;;;;2.25;0.73;;;7.90;99.90;;;;;;5012830;28;20413;-69
2023/01/13 05:50:39;;;;;;;2.05;0.38;;;7.90;99.90;;;;;;5014282;28;20115;-69
2023/01/13 05:53:04;;;;;;;0.95;0.30;;;7.90;99.90;;;;;;5012780;28;20030;-69
2023/01/13 05:55:30;;;;;;;0.28;0.25;;;7.90;99.90;;;;;;5012568;28;20117;-69
2023/01/13 05:57:56;;;;;;;0.68;0.32;;;7.80;99.90;;;;;;5012405;28;20124;-69
2023/01/13 06:00:22;;;;;;;0.50;0.50;;;7.70;99.90;;;;;;5012328;28;20065;-69
2023/01/13 06:02:48;;;;;;;0.82;0.20;;;7.80;99.90;;;;;;5012450;28;20057;-69
2023/01/13 06:05:14;;;;;;;3.67;0.50;;;7.80;99.90;;;;;;5028518;22;20061;-69
2023/01/13 06:07:39;;;;;;;6.00;0.30;;;7.90;99.90;;;;;;5034246;28;20103;-69
2023/01/13 06:10:05;;;;;;;0.70;0.10;;;7.90;99.90;;;;;;5034096;28;20027;-69
2023/01/13 06:12:31;;;;;;;3.25;0.20;;;8.00;99.90;;;;;;5032623;28;20030;-71
2023/01/13 06:14:56;;;;;;;2.72;0.22;;;7.90;99.90;;;;;;5033215;28;20032;-71
2023/01/13 06:17:22;;;;;;;2.83;0.30;;;8.00;99.90;;;;;;5032812;28;20036;-71
2023/01/13 06:19:47;;;;;;;0.60;0.20;;;8.00;99.90;;;;;;5032761;28;20480;-71
2023/01/13 06:22:23;;;;;;;0.70;0.30;;;8.00;99.90;;;;;;5035289;28;20029;-71
2023/01/13 06:24:49;;;;;;;1.48;0.40;;;8.00;99.90;;;;;;5033246;28;20025;-69
2023/01/13 06:27:16;;;;;;;1.42;0.45;;;8.00;99.90;;;;;;5033126;28;20037;-69
2023/01/13 06:29:42;;;;;;;1.85;0.35;;;8.00;99.90;;;;;;5035406;28;20028;-69
2023/01/13 06:32:24;;;;;;;1.83;0.30;;;8.10;99.90;;;;;;5035371;28;20025;-71
2023/01/13 06:34:55;;;;;;;;;;;8.10;99.90;;;;;;5050773;28;20017;-71
2023/01/13 06:37:25;;;;;;;1.88;0.30;;;8.10;99.90;;;;;;5034354;28;19920;-71
2023/01/13 06:39:56;;;;;;;2.22;0.20;;;8.10;99.90;;;;;;5033331;28;20117;-69
2023/01/13 06:45:07;;;;;;;1.10;0.32;;;8.10;99.90;;;;;;5034687;28;20032;-69
2023/01/13 06:47:33;;;;;;;1.75;0.30;;;8.10;99.90;;;;;;5033015;28;20096;-69
2023/01/13 06:49:58;;;;;;;0.90;0.40;;;8.10;99.90;;;;;;5033052;28;20096;-69
2023/01/13 06:52:26;;;;;;;0.50;0.20;;;8.20;99.90;;;;;;5048230;28;20026;-69
2023/01/13 06:54:51;;;;;;;2.35;0.40;;;8.20;99.90;;;;;;5032807;28;20029;-71
2023/01/13 06:57:17;;;;;;;4.13;0.30;;;8.20;99.90;;;;;;5031535;28;20044;-71
2023/01/13 06:59:42;;;;;;;2.22;0.40;;;8.20;99.90;;;;;;5032734;28;20032;-71
2023/01/13 07:02:08;;;;;;;3.05;0.75;;;8.20;99.90;;;;;;5032142;28;20026;-71
2023/01/13 07:04:33;;;;;;;3.17;0.77;;;8.20;99.90;;;;;;5032610;28;20453;-71
2023/01/13 07:06:59;;;;;;;5.80;0.32;;;8.20;99.90;;;;;;5033000;28;20033;-71
2023/01/13 07:09:24;;;;;;;4.95;0.52;;;8.10;99.90;;;;;;5031656;28;20127;-71
2023/01/13 07:11:51;;;;;;;0.32;0.20;;;8.10;99.90;;;;;;5034280;28;20115;-71
2023/01/13 07:17:01;;;;;;;0.60;0.38;;;8.20;99.90;;;;;;5036846;28;20044;-71
2023/01/13 07:19:27;;;;;;;2.17;0.38;;;8.10;99.90;;;;;;5035349;28;20029;-71
2023/01/13 07:21:53;;;;;;;2.72;0.75;;;8.20;99.90;;;;;;5036432;28;20101;-71
2023/01/13 07:24:19;;;;;;;4.72;0.50;;;8.20;99.90;;;;;;5036394;28;20014;-71
2023/01/13 07:26:45;;;;;;;4.90;1.27;;;8.20;99.90;;;;;;5036395;28;20026;-71
2023/01/13 07:29:11;;;;;;;2.03;0.50;;;8.20;99.90;;;;;;5036649;28;20199;-71
2023/01/13 07:31:37;;;;;;;3.15;0.50;;;8.20;99.90;;;;;;5036308;28;20029;-71
2023/01/13 07:34:04;;;;;;;3.13;0.63;;;8.10;99.90;;;;;;5034988;28;20025;-71
2023/01/13 07:36:29;;;;;;;1.25;0.43;;;8.10;99.90;;;;;;5036298;28;20026;-71
2023/01/13 07:38:55;;;;;;;2.78;0.75;;;8.10;99.90;;;;;;5036353;28;20028;-71
2023/01/13 07:44:05;;;;;;;2.53;0.68;;;8.10;99.90;;;;;;5036716;28;20119;-67
2023/01/13 07:46:32;;;;;;;4.93;2.35;;;8.10;99.90;;;;;;5034981;28;20053;-68
2023/01/13 07:48:57;;;;;;;5.22;0.85;;;8.10;99.90;;;;;;5035997;28;20030;-70
2023/01/13 07:51:23;;;;;;;2.83;1.20;;;8.10;99.90;;;;;;5034782;28;20036;-70
2023/01/13 07:53:48;;;;;;;3.08;0.70;;;8.10;99.90;;;;;;5035898;28;20053;-71
2023/01/13 07:56:14;;;;;;;1.67;0.50;;;8.10;99.90;;;;;;5034594;28;20022;-71
2023/01/13 07:58:39;;;;;;;3.20;0.82;;;8.10;99.90;;;;;;5034557;28;20034;-71
2023/01/13 08:01:12;;;;;;;4.32;0.63;;;8.10;99.90;;;;;;5034547;28;20044;-71
2023/01/13 08:03:39;;;;;;;7.57;0.80;;;8.10;99.90;;;;;;5035806;28;20399;-72
2023/01/13 08:06:05;;;;;;;2.65;0.75;;;8.10;99.90;;;;;;5035529;28;20033;-72
2023/01/13 08:08:31;;;;;;;2.67;1.10;;;8.10;99.90;;;;;;5035053;28;20030;-72
2023/01/13 08:11:01;;;;;;;0.90;0.57;;;8.20;99.90;;;;;;5035446;28;20018;-72
2023/01/13 08:13:26;;;;;;;3.10;0.30;;;8.20;99.90;;;;;;5035832;28;20061;-72
2023/01/13 08:15:58;;;;;;;2.35;0.45;;;8.20;99.90;;;;;;5051939;28;20064;-72
2023/01/13 08:18:24;;;;;;;;;;;8.10;99.90;;;;;;5036468;28;20035;-72
2023/01/13 08:20:53;;;;;;;5.15;0.52;;;8.20;99.90;;;;;;5034446;28;19905;-72
2023/01/13 08:23:20;;;;;;;1.13;0.38;;;8.20;99.90;;;;;;5034209;28;20041;-71
2023/01/13 08:25:46;;;;;;;3.30;0.90;;;8.20;99.90;;;;;;5034650;28;20021;-71
2023/01/13 08:28:13;;;;;;;2.55;0.50;;;8.20;99.90;;;;;;5033699;28;20029;-71
2023/01/13 08:30:39;;;;;;;5.20;0.75;;;8.30;99.90;;;;;;5050641;28;20028;-71
2023/01/13 08:33:10;;;;;;;2.17;0.63;;;8.30;99.90;;;;;;5035441;28;20029;-71
2023/01/13 08:35:36;;;;;;;7.05;1.02;;;8.30;99.90;;;;;;5035099;28;20087;-71
2023/01/13 08:38:03;;;;;;;3.80;0.70;;;8.30;99.90;;;;;;5033879;28;20025;-71
2023/01/13 08:40:28;;;;;;;4.25;0.60;;;8.40;99.90;;;;;;5033719;28;20033;-71
2023/01/13 08:42:55;;;;;;;7.75;0.70;;;8.50;99.90;;;;;;5034874;28;20026;-71
2023/01/13 08:45:20;;;;;;;3.45;0.40;;;8.60;99.90;;;;;;5034799;28;20040;-71
2023/01/13 08:47:46;;;;;;;2.97;1.45;;;8.60;99.90;;;;;;5033622;28;20017;-72
2023/01/13 08:50:12;;;;;;;0.73;0.20;;;8.60;99.90;;;;;;5033654;28;20026;-72
2023/01/13 08:52:37;;;;;;;2.70;0.70;;;8.70;99.90;;;;;;5034361;28;20025;-72
2023/01/13 08:55:03;;;;;;;4.30;0.40;;;8.60;99.90;;;;;;5033997;28;20185;-71
2023/01/13 08:57:29;;;;;;;8.68;0.85;;;8.70;99.90;;;;;;5033357;28;20021;-71
2023/01/13 08:59:54;;;;;;;3.15;0.98;;;8.70;99.90;;;;;;5033480;28;20071;-71
2023/01/13 09:02:22;;;;;;;2.50;0.57;;;8.60;99.90;;;;;;5034636;28;20108;-71
2023/01/13 09:04:49;;;;;;;2.70;0.65;;;8.60;99.90;;;;;;5033302;28;20025;-71
2023/01/13 09:07:15;;;;;;;4.47;1.40;;;8.60;99.90;;;;;;5034530;28;20550;-71
2023/01/13 09:09:41;;;;;;;2.17;0.50;;;8.50;99.90;;;;;;5033222;28;20022;-71
2023/01/13 09:14:54;;;;;;;2.60;1.05;;;8.60;99.90;;;;;;5034922;28;20040;-71
2023/01/13 09:17:21;;;;;;;1.08;0.43;;;8.60;99.90;;;;;;5034235;28;20029;-71
2023/01/13 09:19:47;;;;;;;4.57;0.50;;;8.60;99.90;;;;;;5034280;28;20022;-71
2023/01/13 09:22:15;;;;;;;5.05;0.43;;;8.70;99.90;;;;;;5033279;28;20021;-71
2023/01/13 09:24:41;;;;;;;5.43;0.60;;;8.70;99.90;;;;;;5033228;28;20061;-71
2023/01/13 09:27:09;;;;;;;1.77;0.50;;;8.80;99.90;;;;;;5032761;28;20029;-71
2023/01/13 09:29:34;;;;;;;2.35;1.42;;;8.80;99.90;;;;;;5033112;28;20035;-71
2023/01/13 09:32:00;;;;;;;1.58;0.60;;;8.80;99.90;;;;;;5033542;28;20124;-71
2023/01/13 09:37:09;;;;;;;3.33;0.40;;;8.90;99.90;;;;;;5034322;28;20063;-71
2023/01/13 09:39:35;;;;;;;1.92;0.45;;;8.80;99.90;;;;;;5033993;28;20053;-71
2023/01/13 09:45:07;;;;;;;5.95;0.77;;;8.90;99.90;;;;;;5034297;28;20033;-71
2023/01/13 09:47:43;;;;;;;1.85;0.50;;;8.90;99.90;;;;;;5034064;28;20037;-71
2023/01/13 09:50:40;;;;;;;1.85;0.50;;;9.00;99.90;;;;;;5032647;28;20026;-71
2023/01/13 09:53:13;;;;;;;3.35;0.40;;;9.00;99.90;;;;;;5032527;28;20021;-71
2023/01/13 09:55:39;;;;;;;7.85;1.08;;;9.00;99.90;;;;;;5032327;28;20032;-71
2023/01/13 09:58:16;;;;;;;2.92;0.65;;;9.00;99.90;;;;;;5049374;28;20026;-71
2023/01/13 10:01:03;;;;;;;3.28;0.52;;;9.10;99.90;;;;;;5033510;28;20033;-71
2023/01/13 10:03:30;;;;;;;1.40;0.50;;;9.10;99.90;;;;;;5048800;28;20030;-71
2023/01/13 10:06:16;;;;;;;7.72;1.15;;;9.20;99.90;;;;;;5032180;28;20116;-71
2023/01/13 10:08:43;;;;;;;1.25;0.60;;;9.40;99.90;;;;;;5033785;28;20052;-71
2023/01/13 10:14:33;;;;;;;5.10;0.82;;;9.50;99.90;;;;;;5034025;28;20075;-71
2023/01/13 10:17:18;;;;;;;8.75;0.90;;;9.70;99.90;;;;;;5048726;28;20026;-71
2023/01/13 10:19:50;;;;;;;6.65;0.93;;;9.80;99.90;;;;;;5032398;28;20112;-71
2023/01/13 10:22:15;;;;;;;3.50;0.70;;;9.80;99.90;;;;;;5032278;28;20556;-71
2023/01/13 10:25:08;;;;;;;4.20;0.63;;;9.90;99.90;;;;;;5032459;28;20113;-71
2023/01/13 10:27:38;;;;;;;3.20;0.93;;;9.90;99.90;;;;;;5048842;28;20044;-71
2023/01/13 10:30:34;;;;;;;6.13;0.85;;;10.00;99.90;;;;;;5033310;28;20117;-71
2023/01/13 10:33:08;;;;;;;4.45;0.80;;;10.00;99.90;;;;;;5032170;28;20041;-71
2023/01/13 10:35:54;;;;;;;8.95;1.15;;;10.10;99.90;;;;;;5033050;28;20030;-71
2023/01/13 10:38:27;;;;;;;4.18;1.05;;;10.10;99.90;;;;;;5048620;28;20087;-71
2023/01/13 10:41:22;;;;;;;8.13;1.25;;;10.10;99.90;;;;;;5033013;28;20025;-71
2023/01/13 10:43:51;;;;;;;7.88;0.80;;;10.00;99.90;;;;;;5033355;28;20022;-71
2023/01/13 10:46:18;;;;;;;3.78;0.95;;;10.00;99.90;;;;;;5035415;28;20018;-71
2023/01/13 10:48:52;;;;;;;8.23;1.30;;;9.90;99.90;;;;;;5037332;28;20096;-71
2023/01/13 10:51:40;;;;;;;6.38;1.30;;;9.80;99.90;;;;;;5037478;28;20045;-71
2023/01/13 10:54:10;;;;;;;6.60;1.02;;;9.80;99.90;;;;;;5036181;28;20049;-71
2023/01/13 10:56:36;;;;;;;4.10;1.10;;;9.80;99.90;;;;;;5036885;28;20017;-71
2023/01/13 10:59:12;;;;;;;9.73;2.17;;;9.90;99.90;;;;;;5036860;28;20048;-71
2023/01/13 11:01:51;;;;;;;4.03;0.73;;;9.90;99.90;;;;;;5035558;28;20029;-72
2023/01/13 11:04:33;;;;;;;4.43;1.02;;;10.00;99.90;;;;;;5035583;28;20025;-71
2023/01/13 11:07:01;;;;;;;6.43;1.45;;;10.00;99.90;;;;;;5036591;28;20037;-71
2023/01/13 11:09:28;;;;;;;3.58;1.27;;;9.90;99.90;;;;;;5036308;28;20026;-71
2023/01/13 11:11:56;;;;;;;8.45;1.27;;;10.00;99.90;;;;;;5035625;28;20022;-71
2023/01/13 11:14:40;;;;;;;5.82;1.33;;;9.90;99.90;;;;;;5035810;28;20033;-71
2023/01/13 11:17:32;;;;;;;2.83;1.08;;;9.90;99.90;;;;;;5036462;28;20026;-71
2023/01/13 11:20:10;;;;;;;15.32;2.30;;;10.10;99.90;;;;;;5036556;28;20045;-71
2023/01/13 11:22:43;;;;;;;8.27;1.38;;;10.30;99.90;;;;;;5036564;28;20029;-71
2023/01/13 11:25:14;;;;;;;4.20;1.20;;;10.50;99.90;;;;;;5035081;28;20426;-71
2023/01/13 11:27:45;;;;;;;6.97;2.23;;;10.80;99.90;;;;;;5036645;28;20492;-71
2023/01/13 11:30:22;;;;;;;3.25;1.50;;;11.00;99.90;;;;;;5035050;28;20268;-71
2023/01/13 11:32:56;;;;;;;12.27;1.73;;;11.10;99.90;;;;;;5035057;28;20033;-71
2023/01/13 11:35:23;;;;;;;5.30;0.80;;;11.00;99.90;;;;;;5036720;28;20033;-71
2023/01/13 11:37:54;;;;;;;6.57;1.50;;;10.90;99.90;;;;;;5035306;28;20030;-71
2023/01/13 11:40:35;;;;;;;7.85;1.08;;;11.00;99.90;;;;;;5035532;28;20029;-71
2023/01/13 11:43:16;;;;;;;7.45;1.42;;;11.20;99.90;;;;;;5034934;28;20057;-71
2023/01/13 11:45:50;;;;;;;3.87;0.70;;;11.30;99.90;;;;;;5034900;28;20025;-71
2023/01/13 11:48:19;;;;;;;4.68;1.00;;;11.20;99.90;;;;;;5036249;28;20072;-71
2023/01/13 11:51:15;;;;;;;7.05;1.20;;;10.90;99.90;;;;;;5036209;28;20109;-71
2023/01/13 11:53:55;;;;;;;6.15;1.65;;;10.60;99.90;;;;;;5036062;28;20024;-71
2023/01/13 11:56:34;;;;;;;8.63;2.00;;;10.50;99.90;;;;;;5035655;28;20444;-71
2023/01/13 11:59:12;;;;;;;6.93;2.33;;;10.50;99.90;;;;;;5034855;28;20028;-71
2023/01/13 12:02:03;;;;;;;5.85;0.63;;;10.60;99.90;;;;;;5034562;28;20118;-71
2023/01/13 12:04:53;;;;;;;5.10;1.20;;;10.50;99.90;;;;;;5035329;28;20025;-71
2023/01/13 12:07:33;;;;;;;5.35;1.10;;;10.50;99.90;;;;;;5051998;28;20033;-71
2023/01/13 12:10:16;;;;;;;9.30;1.20;;;10.50;99.90;;;;;;5035667;28;20060;-71
2023/01/13 12:13:08;;;;;;;12.60;1.08;;;10.40;99.90;;;;;;5034388;28;20030;-71
2023/01/13 12:15:58;;;;;;;11.77;1.73;;;10.40;99.90;;;;;;5035638;28;20018;-71
2023/01/13 12:18:39;;;;;;;8.32;1.50;;;10.50;99.90;;;;;;5035597;28;20079;-71
2023/01/13 12:21:11;;;;;;;9.60;2.00;;;10.40;99.90;;;;;;5035588;28;20026;-72
2023/01/13 12:23:50;;;;;;;5.97;1.35;;;10.50;99.90;;;;;;5035336;28;20035;-72
2023/01/13 12:26:16;;;;;;;8.35;1.48;;;10.40;99.90;;;;;;5035546;28;20062;-72
2023/01/13 12:28:52;;;;;;;4.35;1.17;;;10.40;99.90;;;;;;5035117;28;20021;-72
2023/01/13 12:31:19;;;;;;;9.02;1.55;;;10.60;99.90;;;;;;5035275;28;20104;-72
2023/01/13 12:33:45;;;;;;;7.47;1.90;;;10.80;99.90;;;;;;5033950;28;20120;-72
2023/01/13 12:36:23;;;;;;;10.77;1.45;;;10.70;99.90;;;;;;5035096;28;20017;-72
2023/01/13 12:39:08;;;;;;;7.60;1.13;;;10.70;99.90;;;;;;5034486;28;20029;-72
2023/01/13 12:45:04;;;;;;;6.53;1.02;;;10.50;99.90;;;;;;5015939;28;20088;-72
2023/01/13 12:47:37;;;;;;;5.70;1.23;;;10.30;99.90;;;;;;5034978;28;20049;-72
2023/01/13 12:50:21;;;;;;;5.90;1.55;;;10.10;99.90;;;;;;5033664;28;20026;-71
2023/01/13 12:52:48;;;;;;;9.80;1.15;;;9.90;99.90;;;;;;5033555;28;20025;-71
2023/01/13 12:55:35;;;;;;;6.65;1.73;;;9.80;99.90;;;;;;5034719;28;20017;-71
2023/01/13 12:58:07;;;;;;;11.65;2.13;;;9.70;99.90;;;;;;5033261;28;20033;-71
2023/01/13 13:00:38;;;;;;;8.73;2.03;;;9.80;99.90;;;;;;5033543;28;20029;-71
2023/01/13 13:03:10;;;;;;;11.13;1.60;;;10.00;99.90;;;;;;5033614;28;20025;-71
2023/01/13 13:05:58;;;;;;;10.98;1.60;;;10.30;99.90;;;;;;5034673;28;20461;-71
2023/01/13 13:08:23;;;;;;;12.20;2.92;;;10.60;99.90;;;;;;5032992;28;20025;-71
2023/01/13 13:10:59;;;;;;;11.77;1.42;;;10.80;99.90;;;;;;5033174;28;20029;-71
2023/01/13 13:13:47;;;;;;;6.22;1.25;;;11.00;99.90;;;;;;5033175;28;20032;-71
2023/01/13 13:16:25;;;;;;;6.07;1.58;;;11.30;99.90;;;;;;5034365;28;20021;-72
2023/01/13 13:18:51;;;;;;;13.35;1.67;;;11.40;99.90;;;;;;5033144;28;20033;-72
2023/01/13 13:21:17;;;;;;;6.85;1.98;;;11.40;99.90;;;;;;5034245;28;20017;-72
2023/01/13 13:23:52;;;;;;;6.82;1.45;;;11.40;99.90;;;;;;5032999;28;20021;-72
2023/01/13 13:26:20;;;;;;;6.07;1.40;;;11.50;99.90;;;;;;5034082;28;20026;-72
2023/01/13 13:29:30;;;;;;;6.63;1.10;;;11.60;99.90;;;;;;5033114;28;20017;-72
2023/01/13 13:32:22;;;;;;;6.47;1.42;;;11.50;99.90;;;;;;4976622;28;20124;-71
2023/01/13 13:35:12;;;;;;;6.30;1.73;;;11.20;99.90;;;;;;4992967;28;20030;-71
2023/01/13 13:46:47;;;;;;;10.98;2.30;;;10.20;99.90;;;;;;4993060;28;20042;-71
2023/01/13 13:49:34;;;;;;;7.78;1.20;;;9.40;99.90;;;;;;4976206;28;20038;-71
2023/01/13 13:52:09;;;;;;;6.93;2.22;;;9.10;99.90;;;;;;4992297;28;20030;-71
2023/01/13 13:54:38;;;;;;;10.82;1.42;;;9.30;99.90;;;;;;4976077;28;20038;-71
2023/01/13 13:57:04;;;;;;;8.35;2.00;;;9.50;99.90;;;;;;4975923;28;20509;-71
2023/01/13 13:59:32;;;;;;;6.25;1.48;;;9.60;99.90;;;;;;4992219;28;20105;-71
2023/01/13 14:01:59;;;;;;;8.63;1.30;;;9.70;99.90;;;;;;4992231;28;20126;-71
2023/01/13 14:04:28;;;;;;;5.50;0.88;;;9.90;99.90;;;;;;4976636;28;20023;-71
2023/01/13 14:07:05;;;;;;;14.90;2.00;;;10.00;99.90;;;;;;4975899;28;20030;-72
2023/01/13 14:09:44;;;;;;;9.95;2.35;;;10.10;99.90;;;;;;5031942;28;20029;-71
2023/01/13 14:12:18;;;;;;;6.63;1.83;;;10.10;99.90;;;;;;5032103;28;20028;-71